createdAt,value
2023-02-15T00:00:46.856Z,70.48
2023-02-15T00:05:41.345Z,69.83
2023-02-15T00:10:35.698Z,69.93
2023-02-15T00:15:27.564Z,70.15
2023-02-15T00:20:21.217Z,70.56
2023-02-15T00:25:10.887Z,71.10
2023-02-15T00:30:05.149Z,70.84
2023-02-15T00:34:58.264Z,70.71
2023-02-15T00:39:48.861Z,70.73
2023-02-15T00:44:41.981Z,70.48
2023-02-15T00:49:38.006Z,70.42
2023-02-15T00:54:30.914Z,70.26
2023-02-15T00:59:21.773Z,70.43
2023-02-15T01:04:12.733Z,70.28
2023-02-15T01:09:08.056Z,70.80
2023-02-15T01:14:04.836Z,69.75
2023-02-15T01:18:56.023Z,70.64
2023-02-15T01:23:47.644Z,70.92
2023-02-15T01:28:54.690Z,70.84
2023-02-15T01:33:49.341Z,70.90
2023-02-15T01:38:41.925Z,70.88
2023-02-15T01:43:49.636Z,70.91
2023-02-15T01:48:50.463Z,70.98
2023-02-15T01:53:47.745Z,70.30
2023-02-15T01:58:47.550Z,70.32
2023-02-15T02:03:49.601Z,70.25
2023-02-15T02:08:42.291Z,70.42
2023-02-15T02:13:33.517Z,70.20
2023-02-15T02:18:32.922Z,70.47
2023-02-15T02:23:52.902Z,70.90
2023-02-15T02:28:58.905Z,70.84
2023-02-15T02:34:01.334Z,70.98
2023-02-15T02:39:08.575Z,70.76
2023-02-15T02:44:05.782Z,70.95
2023-02-15T02:48:59.789Z,70.88
2023-02-15T02:53:56.420Z,70.68
2023-02-15T02:58:54.803Z,71.48
2023-02-15T03:03:49.214Z,70.61
2023-02-15T03:08:49.670Z,71.14
2023-02-15T03:13:41.823Z,72.05
2023-02-15T03:18:40.205Z,71.93
2023-02-15T03:23:32.594Z,72.11
2023-02-15T03:28:33.615Z,71.96
2023-02-15T03:33:29.030Z,72.00
2023-02-15T03:38:22.749Z,71.75
2023-02-15T03:43:17.990Z,71.66
2023-02-15T03:48:16.244Z,71.83
2023-02-15T03:53:08.198Z,71.80
2023-02-15T03:58:12.559Z,71.61
2023-02-15T04:03:31.160Z,71.39
2023-02-15T04:08:21.628Z,71.34
2023-02-15T04:13:28.369Z,72.05
2023-02-15T04:18:33.860Z,71.53
2023-02-15T04:23:39.812Z,71.80
2023-02-15T04:28:39.466Z,71.14
2023-02-15T04:33:32.881Z,72.04
2023-02-15T04:38:29.799Z,71.93
2023-02-15T04:43:20.016Z,72.13
2023-02-15T04:48:14.294Z,72.11
2023-02-15T04:53:07.544Z,72.16
2023-02-15T04:57:57.673Z,72.13
2023-02-15T05:02:48.578Z,72.40
2023-02-15T05:07:40.237Z,72.41
2023-02-15T05:12:35.283Z,72.27
2023-02-15T05:17:26.817Z,72.37
2023-02-15T05:22:22.435Z,71.91
2023-02-15T05:27:28.559Z,72.04
2023-02-15T05:32:29.640Z,72.84
2023-02-15T05:37:24.084Z,73.00
2023-02-15T05:42:16.824Z,73.44
2023-02-15T05:47:08.696Z,73.58
2023-02-15T05:52:12.586Z,73.10
2023-02-15T05:57:22.754Z,67.20
2023-02-15T06:02:15.069Z,80.47
2023-02-15T06:07:15.220Z,85.62
2023-02-15T06:12:11.864Z,88.03
2023-02-15T06:17:04.392Z,89.68
2023-02-15T06:21:55.653Z,90.89
2023-02-15T06:26:49.592Z,90.94
2023-02-15T06:31:43.600Z,91.36
2023-02-15T06:36:38.432Z,91.53
2023-02-15T06:41:32.223Z,91.84
2023-02-15T06:46:26.862Z,92.03
2023-02-15T06:51:25.424Z,92.45
2023-02-15T06:56:19.170Z,92.75
2023-02-15T07:01:22.113Z,93.04
2023-02-15T07:06:15.743Z,93.22
2023-02-15T07:11:18.821Z,93.01
2023-02-15T07:16:10.143Z,93.36
2023-02-15T07:21:01.736Z,93.69
2023-02-15T07:26:01.870Z,93.70
2023-02-15T07:30:59.333Z,93.90
2023-02-15T07:35:59.220Z,94.04
2023-02-15T07:40:54.702Z,94.60
2023-02-15T07:46:21.329Z,95.06
2023-02-15T07:51:35.098Z,95.09
2023-02-15T07:56:29.545Z,95.19
2023-02-15T08:01:36.313Z,95.43
2023-02-15T08:06:35.775Z,95.32
2023-02-15T08:11:46.110Z,95.40
2023-02-15T08:16:46.202Z,95.20
2023-02-15T08:21:41.191Z,95.29
2023-02-15T08:26:41.869Z,95.49
2023-02-15T08:31:34.350Z,95.87
2023-02-15T08:36:33.830Z,96.12
2023-02-15T08:41:32.254Z,96.50
2023-02-15T08:46:48.284Z,96.35
2023-02-15T08:51:44.222Z,95.08
2023-02-15T08:56:38.448Z,94.18
2023-02-15T09:01:31.244Z,93.13
2023-02-15T09:06:22.610Z,92.61
2023-02-15T09:11:28.088Z,91.44
2023-02-15T09:16:21.989Z,91.20
2023-02-15T09:21:24.652Z,90.14
2023-02-15T09:26:20.054Z,89.85
2023-02-15T09:31:17.848Z,89.08
2023-02-15T09:36:13.110Z,88.66
2023-02-15T09:41:43.998Z,88.09
2023-02-15T09:47:00.854Z,86.05
2023-02-15T09:52:36.083Z,83.00
2023-02-15T09:57:39.950Z,83.92
2023-02-15T10:02:52.032Z,77.81
2023-02-15T10:08:02.084Z,75.01
2023-02-15T10:13:24.472Z,73.41
2023-02-15T10:18:42.536Z,72.28
2023-02-15T10:24:06.470Z,71.92
2023-02-15T10:29:12.171Z,70.73
2023-02-15T10:34:20.063Z,71.53
2023-02-15T10:39:25.963Z,71.18
2023-02-15T10:44:38.339Z,71.31
2023-02-15T10:50:03.377Z,72.51
2023-02-15T10:55:02.755Z,72.80
2023-02-15T11:00:08.685Z,71.71
2023-02-15T11:05:19.516Z,70.06
2023-02-15T11:10:38.193Z,68.89
2023-02-15T11:15:38.427Z,69.01
2023-02-15T11:20:39.866Z,67.96
2023-02-15T11:25:37.955Z,67.24
2023-02-15T11:30:40.338Z,66.73
2023-02-15T11:35:42.796Z,65.96
2023-02-15T11:40:46.304Z,65.02
2023-02-15T11:45:47.800Z,65.05
2023-02-15T11:50:45.880Z,65.24
2023-02-15T11:55:39.143Z,64.28
2023-02-15T12:00:45.933Z,64.64
2023-02-15T12:05:47.720Z,64.01
2023-02-15T12:10:56.994Z,63.75
2023-02-15T12:15:56.406Z,62.25
2023-02-15T12:20:54.231Z,61.79
2023-02-15T12:25:55.839Z,61.22
2023-02-15T12:30:48.866Z,61.85
2023-02-15T12:35:44.772Z,61.78
2023-02-15T12:40:43.514Z,60.99
2023-02-15T12:45:38.862Z,58.63
2023-02-15T12:50:35.439Z,58.56
2023-02-15T12:55:30.977Z,58.24
2023-02-15T13:00:40.792Z,57.99
2023-02-15T13:05:40.231Z,58.17
2023-02-15T13:10:38.351Z,57.95
2023-02-15T13:15:45.368Z,58.80
2023-02-15T13:20:42.094Z,60.86
2023-02-15T13:25:37.584Z,59.74
2023-02-15T13:30:35.249Z,59.31
2023-02-15T13:35:43.399Z,57.93
2023-02-15T13:40:50.302Z,58.80
2023-02-15T13:45:52.462Z,58.84
2023-02-15T13:51:14.860Z,58.05
2023-02-15T13:56:18.870Z,58.29
2023-02-15T14:01:16.866Z,58.38
2023-02-15T14:06:33.458Z,58.82
2023-02-15T14:11:47.641Z,59.33
2023-02-15T14:17:05.815Z,59.22
2023-02-15T14:22:14.172Z,58.60
2023-02-15T14:27:18.598Z,58.87
2023-02-15T14:32:16.170Z,58.96
2023-02-15T14:37:14.829Z,59.21
2023-02-15T14:42:12.425Z,59.49
2023-02-15T14:47:14.453Z,59.39
2023-02-15T14:52:16.064Z,60.17
2023-02-15T14:57:44.599Z,60.46
2023-02-15T15:02:54.409Z,60.04
2023-02-15T15:08:06.114Z,61.20
2023-02-15T15:13:00.269Z,59.87
2023-02-15T15:18:06.743Z,59.83
2023-02-15T15:23:45.865Z,61.33
2023-02-15T15:29:00.295Z,61.91
2023-02-15T15:34:21.973Z,61.68
2023-02-15T15:39:39.665Z,62.19
2023-02-15T15:45:14.923Z,60.91
2023-02-15T15:50:27.941Z,62.41
2023-02-15T15:55:32.280Z,63.13
2023-02-15T16:00:39.544Z,63.08
2023-02-15T16:05:39.504Z,63.68
2023-02-15T16:10:40.538Z,64.03
2023-02-15T16:15:40.170Z,64.83
2023-02-15T16:20:43.295Z,65.50
2023-02-15T16:26:04.361Z,65.20
2023-02-15T16:31:13.052Z,65.57
2023-02-15T16:36:10.888Z,66.12
2023-02-15T16:41:04.883Z,66.63
2023-02-15T16:46:07.088Z,67.00
2023-02-15T16:51:03.075Z,67.58
2023-02-15T16:56:11.988Z,67.57
2023-02-15T17:01:26.821Z,67.34
2023-02-15T17:06:37.168Z,67.57
2023-02-15T17:11:41.110Z,67.77
2023-02-15T17:16:37.777Z,67.91
2023-02-15T17:21:37.533Z,68.06
2023-02-15T17:26:39.573Z,68.21
2023-02-15T17:31:37.385Z,68.67
2023-02-15T17:36:32.541Z,68.93
2023-02-15T17:41:23.570Z,69.51
2023-02-15T17:46:21.850Z,70.00
2023-02-15T17:51:18.444Z,69.91
2023-02-15T17:56:14.486Z,70.38
2023-02-15T18:01:24.128Z,70.60
2023-02-15T18:06:30.150Z,70.94
2023-02-15T18:11:34.895Z,71.47
2023-02-15T18:16:31.187Z,70.42
2023-02-15T18:21:42.162Z,70.06
2023-02-15T18:26:34.271Z,70.17
2023-02-15T18:31:30.376Z,70.62
2023-02-15T18:36:38.972Z,71.28
2023-02-15T18:41:39.233Z,71.49
2023-02-15T18:46:32.940Z,71.29
2023-02-15T18:51:27.990Z,71.39
2023-02-15T18:56:26.347Z,71.44
2023-02-15T19:01:18.916Z,71.43
2023-02-15T19:06:14.982Z,71.54
2023-02-15T19:11:07.801Z,71.88
2023-02-15T19:16:35.794Z,72.08
2023-02-15T19:21:36.230Z,72.15
2023-02-15T19:26:43.155Z,72.72
2023-02-15T19:31:55.435Z,72.92
2023-02-15T19:36:49.293Z,73.31
2023-02-15T19:41:48.112Z,73.40
2023-02-15T19:46:44.251Z,73.77
2023-02-15T19:51:36.666Z,74.57
2023-02-15T19:56:30.568Z,72.58
2023-02-15T20:01:29.746Z,73.66
2023-02-15T20:06:24.285Z,74.22
2023-02-15T20:11:28.048Z,73.21
2023-02-15T20:16:27.616Z,73.03
2023-02-15T20:21:22.561Z,73.28
2023-02-15T20:26:19.556Z,73.55
2023-02-15T20:31:22.132Z,73.67
2023-02-15T20:36:19.562Z,73.55
2023-02-15T20:41:37.484Z,73.58
2023-02-15T20:46:31.839Z,73.58
2023-02-15T20:51:24.943Z,73.62
2023-02-15T20:56:26.843Z,73.82
2023-02-15T21:01:22.755Z,69.18
2023-02-15T21:06:20.929Z,68.43
2023-02-15T21:11:33.015Z,67.91
2023-02-15T21:16:25.529Z,68.61
2023-02-15T21:21:28.059Z,67.68
2023-02-15T21:26:20.191Z,68.16
2023-02-15T21:31:26.115Z,67.67
2023-02-15T21:36:26.413Z,66.76
2023-02-15T21:41:31.208Z,68.00
2023-02-15T21:46:37.580Z,67.05
2023-02-15T21:51:47.631Z,66.57
2023-02-15T21:56:41.710Z,66.99
2023-02-15T22:01:38.767Z,68.06
2023-02-15T22:06:32.745Z,68.68
2023-02-15T22:11:25.996Z,68.15
2023-02-15T22:16:18.262Z,69.25
2023-02-15T22:21:08.228Z,70.95
2023-02-15T22:26:02.807Z,69.94
2023-02-15T22:30:56.474Z,69.57
2023-02-15T22:36:02.398Z,67.95
2023-02-15T22:40:57.595Z,68.42
2023-02-15T22:45:51.121Z,67.19
2023-02-15T22:50:43.596Z,68.19
2023-02-15T22:55:39.812Z,68.05
2023-02-15T23:00:31.214Z,68.16
2023-02-15T23:05:25.047Z,68.40
2023-02-15T23:15:26.536Z,69.21
2023-02-15T23:20:18.302Z,69.16
2023-02-15T23:25:15.408Z,68.02
2023-02-15T23:30:17.450Z,68.94
2023-02-15T23:35:16.179Z,67.25
2023-02-15T23:40:19.071Z,68.11
2023-02-15T23:45:21.940Z,69.15
2023-02-15T23:50:19.477Z,69.02
2023-02-15T23:55:14.506Z,69.83
